NCAR-RAP Real-Time Weather Data

Output produced by METARs form (10 April 2020  07:25 UTC)
found at http://weather.rap.ucar.edu/surface/
 
K8D3 100656Z AUTO 25007KT M02/M05 A3013 RMK AO1 SLP223 T10171050
K8D3 100556Z AUTO 26007KT M01/M05 A3015 RMK AO1 SLP231 T10111050 10028 21011 400281017 55000
K8D3 100456Z AUTO 28008KT M01/M05 A3014 RMK AO1 SLP227 T10061050
K8D3 100356Z AUTO 28006KT M01/M05 A3014 RMK AO1 SLP228 T10061050
K8D3 100256Z AUTO 28008KT M01/M04 A3015 RMK AO1 SLP231 T10061044 53005
K8D3 100156Z AUTO 29007KT 00/M04 A3014 RMK AO1 SLP226 T00001044
K8D3 100056Z AUTO 32011KT 01/M05 A3013 RMK AO1 SLP224 T00111050
K8D3 092356Z AUTO 33015KT 03/M06 A3013 RMK AO1 SLP223 T00281056 10028 21006 50000
K8D3 092256Z AUTO 33017G24KT 02/M06 A3014 RMK AO1 PK WND 33028/2203 SLP226 T00171056
K8D3 092156Z AUTO 35019G28KT 02/M04 A3013 RMK AO1 PK WND 31031/2131 SLP222 T00171044
K8D3 092056Z AUTO 32023G29KT 02/M05 A3013 RMK AO1 PK WND 34033/2017 SLP222 T00171050 51008
K8D3 091956Z AUTO 33024G33KT 02/M06 A3013 RMK AO1 PK WND 33034/1926 SLP220 T00171061
K8D3 091856Z AUTO 34022G33KT 00/M07 A3012 RMK AO1 PK WND 35036/1812 SLP220 T00001067
K8D3 091756Z AUTO 33021G35KT 00/M07 A3011 RMK AO1 PK WND 32035/1749 SLP214 T00001072 10011 21017 53029
K8D3 091656Z AUTO 34023G31KT 01/M07 A3008 RMK AO1 PK WND 35031/1650 SLP204 T00061067
K8D3 091556Z AUTO 33024G32KT 00/M07 A3004 RMK AO1 PK WND 34032/1555 SLP192 T00001067
K8D3 091456Z AUTO 34020G29KT M01/M07 A3002 RMK AO1 PK WND 33032/1427 SLP183 T10061067 51023
K8D3 091356Z AUTO 33024G33KT M01/M07 A3000 RMK AO1 PK WND 32033/1351 SLP176 T10111072
K8D3 091256Z AUTO 33022G29KT M02/M07 A2998 RMK AO1 PK WND 31033/1218 SLP168 T10171067 $
K8D3 091156Z AUTO 32021G27KT M02/M06 A2995 RMK AO1 PK WND 32032/1127 SLP157 7//// T10171061 10011 21017 53015 $
K8D3 091056Z AUTO 32024G34KT M01/M05 A2992 RMK AO1 PK WND 31034/1053 SLP145 T10061050 $
K8D3 090956Z AUTO 29016G23KT 01/M07 A2990 RMK AO1 SLP136 T00061067 $
K8D3 090856Z AUTO 28015KT 01/M06 A2990 RMK AO1 SLP137 T00061061 56008 $